KFWA/FWA METAR and TAF weather

Enter ICAO airport designator
Station Type Date Time Source
KFWA METAR 2019/11/21 03:25 UTC NOAA

KFWA 210325Z 17005KT 8SM SCT024 OVC210 04/02 A3022 RMK AO2 T00390017


Station Type Date Time Source
KFWA Decoded METAR 2019/11/21 03:25 UTC NOAA

FORT WAYNE INTERNATIONAL, IN, United States (KFWA) 41-00N 85-12W 248M
Nov 20, 2019 - 10:25 PM EST / 2019.11.21 0325 UTC
Wind: from the S (170 degrees) at 6 MPH (5 KT):0
Visibility: 8 mile(s):0
Sky conditions: overcast
Temperature: 39.0 F (3.9 C)
Dew Point: 35.1 F (1.7 C)
Relative Humidity: 85%
Pressure (altimeter): 30.22 in. Hg (1023 hPa)
ob: KFWA 210325Z 17005KT 8SM SCT024 OVC210 04/02 A3022 RMK AO2 T00390017
cycle: 3

Station Type Date Time Source
KFWA TAF 2019/11/20 21:18 UTC NOAA

TAF
AMD KFWA 202116Z 2021/2118 23005KT P6SM BKN025
FM210000 16004KT P6SM OVC070
FM211500 16015KT 6SM -RA OVC080 WS020/21045KT

Example: see airport list